Time;durP1;ratioP1;P1;durP2;ratioP2;P2;SDS_P1;SDS_P2;PMS_P1;PMS_P2;Temp;Humidity;BMP_temperature;BMP_pressure;BME280_temperature;BME280_humidity;BME280_pressure;Samples;Min_cycle;Max_cycle;Signal;HPM_P1;HPM_P2
2021/08/17 00:01:45;;;;;;;5.65;2.35;;;;;;;22.43;54.46;99120.38;5032625;28;20026;-49
2021/08/17 00:04:10;;;;;;;9.13;5.65;;;;;;;22.29;54.55;99109.41;5032607;28;20442;-50
2021/08/17 00:06:36;;;;;;;8.52;3.92;;;;;;;21.97;55.30;99116.81;5032539;28;20076;-50
2021/08/17 00:09:02;;;;;;;5.53;1.58;;;;;;;21.73;55.88;99119.97;5032535;28;20067;-50
2021/08/17 00:11:28;;;;;;;3.92;2.08;;;;;;;21.56;56.29;99117.50;5047694;28;20026;-50
2021/08/17 00:13:54;;;;;;;10.52;7.72;;;;;;;21.22;57.14;99111.72;5047749;28;20025;-50
2021/08/17 00:16:20;;;;;;;8.68;7.97;;;;;;;21.06;57.66;99116.19;5047587;28;20030;-50
2021/08/17 00:18:46;;;;;;;6.10;4.80;;;;;;;20.88;58.09;99106.75;5032359;28;20021;-50
2021/08/17 00:21:14;;;;;;;41.15;37.95;;;;;;;20.78;58.76;99106.69;5047541;28;20116;-50
2021/08/17 00:23:40;;;;;;;5.28;3.58;;;;;;;20.65;59.21;99108.72;5030912;28;20028;-50
2021/08/17 00:26:05;;;;;;;3.25;2.63;;;;;;;20.49;59.48;99107.78;5047566;28;20041;-50
2021/08/17 00:28:31;;;;;;;26.75;24.40;;;;;;;20.51;60.42;99099.53;5032297;28;20061;-49
2021/08/17 00:30:57;;;;;;;18.00;16.65;;;;;;;20.60;60.08;99108.69;5032048;28;20047;-50
2021/08/17 00:33:22;;;;;;;7.80;4.10;;;;;;;20.65;59.85;99108.72;5032132;28;20029;-50
2021/08/17 00:35:48;;;;;;;9.65;5.28;;;;;;;20.49;60.18;99107.78;5032073;28;20022;-50
2021/08/17 00:38:14;;;;;;;6.72;2.80;;;;;;;20.49;60.80;99107.78;5047388;28;20044;-50
2021/08/17 00:40:40;;;;;;;6.90;3.17;;;;;;;20.53;60.69;99106.22;5047375;28;20498;-50
2021/08/17 00:43:08;;;;;;;7.72;1.95;;;;;;;20.52;60.96;99106.44;5031942;28;20033;-50
2021/08/17 00:45:35;;;;;;;4.45;1.83;;;;;;;20.42;61.02;99109.84;5031878;28;20495;-50
2021/08/17 00:48:01;;;;;;;6.47;5.78;;;;;;;20.31;61.40;99100.16;5031816;28;20029;-50
2021/08/17 00:50:33;;;;;;;7.18;5.47;;;;;;;20.19;61.80;99102.19;5031798;28;20063;-49
2021/08/17 00:52:59;;;;;;;14.02;12.70;;;;;;;20.19;62.19;99110.19;5032013;28;20029;-50
2021/08/17 00:55:27;;;;;;;33.75;31.02;;;;;;;20.39;62.13;99106.91;5031631;28;20397;-50
2021/08/17 00:57:53;;;;;;;3.25;2.05;;;;;;;20.59;61.65;99099.09;5031808;28;20025;-50
2021/08/17 01:00:18;;;;;;;7.15;2.03;;;;;;;20.70;61.36;99103.41;5031767;28;20395;-50
2021/08/17 01:02:44;;;;;;;3.92;2.88;;;;;;;20.81;61.30;99098.19;5047023;28;20061;-50
2021/08/17 01:05:11;;;;;;;7.22;2.50;;;;;;;20.85;60.88;99100.06;5031735;28;20518;-50
2021/08/17 01:07:38;;;;;;;3.70;2.50;;;;;;;20.83;60.71;99101.38;5031756;28;20043;-49
2021/08/17 01:10:05;;;;;;;9.75;3.60;;;;;;;20.84;60.74;99093.09;5031592;28;20014;-49
2021/08/17 01:12:33;;;;;;;76.43;70.28;;;;;;;20.88;60.82;99104.88;5031682;28;20026;-49
2021/08/17 01:14:59;;;;;;;6.93;5.30;;;;;;;20.99;60.84;99105.75;5030357;28;20075;-50
2021/08/17 01:17:24;;;;;;;9.05;2.35;;;;;;;21.08;60.32;99098.84;5030295;28;20604;-50
2021/08/17 01:19:51;;;;;;;6.75;2.45;;;;;;;21.15;60.28;99093.28;5031663;28;20026;-49
2021/08/17 01:22:17;;;;;;;11.50;6.93;;;;;;;21.21;60.26;99094.09;5031600;28;20049;-50
2021/08/17 01:24:42;;;;;;;41.05;37.45;;;;;;;21.27;59.87;99095.72;5046848;28;20507;-50
2021/08/17 01:27:11;;;;;;;38.63;34.47;;;;;;;21.44;60.46;99088.34;5031288;28;20050;-50
2021/08/17 01:29:37;;;;;;;15.63;14.13;;;;;;;21.69;59.04;99090.31;5047007;28;20025;-50
2021/08/17 01:32:03;;;;;;;13.30;12.00;;;;;;;21.49;59.31;99088.38;5031773;28;20029;-50
2021/08/17 01:34:29;;;;;;;4.13;2.83;;;;;;;21.39;59.54;99082.97;5031478;28;20531;-50
2021/08/17 01:36:55;;;;;;;9.55;4.97;;;;;;;21.09;59.33;99089.00;5031438;28;20112;-50
2021/08/17 01:39:21;;;;;;;8.65;7.40;;;;;;;20.83;60.36;99093.38;5031399;28;20060;-50
2021/08/17 01:41:47;;;;;;;2.75;1.50;;;;;;;20.72;60.78;99085.28;5031397;28;20034;-50
2021/08/17 01:44:14;;;;;;;8.93;3.15;;;;;;;20.55;61.10;99092.63;5030043;28;20035;-50
2021/08/17 01:46:42;;;;;;;6.30;2.92;;;;;;;20.46;61.67;99094.94;5031339;28;20033;-49
2021/08/17 01:49:08;;;;;;;4.88;1.58;;;;;;;20.40;61.90;99105.81;5031415;28;20022;-50
2021/08/17 01:51:35;;;;;;;4.15;1.77;;;;;;;20.37;61.95;99098.34;5031184;28;20494;-50
2021/08/17 01:54:03;;;;;;;4.95;1.92;;;;;;;20.32;62.30;99094.59;5031313;28;20022;-49
2021/08/17 01:56:29;;;;;;;2.53;1.33;;;;;;;20.34;62.29;99099.66;5031256;28;20404;-50
2021/08/17 01:58:55;;;;;;;7.85;3.55;;;;;;;20.28;62.25;99084.66;5046541;28;20100;-50
2021/08/17 02:01:20;;;;;;;7.03;2.55;;;;;;;20.22;62.66;99085.69;5046479;28;20030;-50
2021/08/17 02:03:47;;;;;;;14.10;10.70;;;;;;;20.38;62.93;99079.41;5031251;28;20021;-51
2021/08/17 02:06:15;;;;;;;4.18;3.28;;;;;;;20.67;62.19;99074.59;5032013;28;20025;-50
2021/08/17 02:08:41;;;;;;;4.60;2.65;;;;;;;20.80;61.59;99083.22;5035078;28;20144;-51
2021/08/17 02:11:07;;;;;;;4.85;2.92;;;;;;;20.83;61.39;99085.38;5034718;28;20105;-50
2021/08/17 02:13:33;;;;;;;20.92;18.58;;;;;;;20.95;60.93;99078.78;5034716;28;20017;-50
2021/08/17 02:16:00;;;;;;;13.95;12.55;;;;;;;20.98;60.97;99077.44;5034601;28;20087;-51
2021/08/17 02:18:31;;;;;;;5.55;3.83;;;;;;;21.12;60.78;99080.44;5034552;28;20029;-50
2021/08/17 02:21:01;;;;;;;3.00;1.40;;;;;;;21.32;60.06;99082.41;5034623;28;20582;-50
2021/08/17 02:23:27;;;;;;;9.20;3.97;;;;;;;20.94;59.91;99085.16;5034606;28;20037;-50
2021/08/17 02:25:53;;;;;;;56.10;51.45;;;;;;;20.45;61.27;99082.69;5034225;28;20053;-50
2021/08/17 02:28:20;;;;;;;11.05;10.05;;;;;;;20.15;62.21;99081.38;5049856;28;20407;-50
2021/08/17 02:30:47;;;;;;;7.30;3.35;;;;;;;20.09;62.75;99078.91;5034355;28;20018;-50
2021/08/17 02:33:13;;;;;;;3.42;1.67;;;;;;;20.02;62.69;99083.63;5034328;28;20083;-50
2021/08/17 02:35:41;;;;;;;6.07;2.08;;;;;;;19.95;63.14;99081.19;5034346;28;20029;-50
2021/08/17 02:38:07;;;;;;;9.45;8.75;;;;;;;19.81;63.76;99083.44;5034309;28;20450;-50
2021/08/17 02:40:33;;;;;;;8.52;2.40;;;;;;;19.66;64.01;99089.41;5034270;28;20044;-50
2021/08/17 02:42:59;;;;;;;6.68;4.43;;;;;;;19.59;64.44;99086.13;5049439;28;20725;-50
2021/08/17 02:45:25;;;;;;;8.95;6.07;;;;;;;19.62;64.41;99082.13;5034370;28;20430;-50
2021/08/17 02:48:04;;;;;;;6.55;4.50;;;;;;;19.64;64.45;99085.34;5049486;28;20029;-50
2021/08/17 02:50:30;;;;;;;12.55;3.95;;;;;;;19.85;64.36;99087.22;5034016;28;20509;-49
2021/08/17 02:52:56;;;;;;;6.90;2.83;;;;;;;20.00;63.53;99088.41;5034027;28;20048;-50
2021/08/17 02:55:22;;;;;;;13.93;12.63;;;;;;;20.01;63.51;99090.03;5049228;28;20064;-50
2021/08/17 02:57:51;;;;;;;71.63;65.30;;;;;;;20.04;63.50;99078.88;5049160;28;20032;-50
2021/08/17 03:00:17;;;;;;;5.88;4.53;;;;;;;20.07;63.14;99076.50;5049195;28;20025;-49
2021/08/17 03:02:43;;;;;;;8.43;6.43;;;;;;;19.92;63.38;99082.50;5033829;28;20056;-50
2021/08/17 03:05:09;;;;;;;45.13;41.20;;;;;;;19.92;63.75;99071.03;5033785;28;20029;-49
2021/08/17 03:07:35;;;;;;;6.57;3.20;;;;;;;20.03;63.36;99083.41;5049079;28;20064;-50
2021/08/17 03:10:00;;;;;;;5.18;2.45;;;;;;;20.05;63.18;99077.81;5033669;28;20449;-50
2021/08/17 03:12:26;;;;;;;4.22;2.30;;;;;;;19.97;63.24;99067.63;5033711;28;20119;-50
2021/08/17 03:14:52;;;;;;;11.90;4.30;;;;;;;19.91;63.46;99066.75;5033697;28;20030;-50
2021/08/17 03:17:17;;;;;;;28.73;8.30;;;;;;;19.86;63.56;99066.69;5031573;28;20029;-49
2021/08/17 03:19:43;;;;;;;6.18;4.85;;;;;;;19.73;63.69;99071.38;5033118;28;20025;-50
2021/08/17 03:22:09;;;;;;;19.38;17.10;;;;;;;19.59;63.98;99067.47;5032103;28;20036;-50
2021/08/17 03:24:35;;;;;;;19.92;12.93;;;;;;;19.54;64.55;99065.56;5033413;28;20029;-50
2021/08/17 03:27:02;;;;;;;44.70;40.42;;;;;;;19.53;64.74;99065.81;5033149;28;20052;-50
2021/08/17 03:29:27;;;;;;;12.50;11.43;;;;;;;19.68;64.50;99068.66;5033300;28;20040;-50
2021/08/17 03:31:53;;;;;;;4.80;2.67;;;;;;;19.71;64.36;99070.81;5033182;28;20025;-50
2021/08/17 03:34:18;;;;;;;11.18;5.95;;;;;;;19.83;64.46;99065.34;5031876;28;20495;-50
2021/08/17 03:36:44;;;;;;;11.98;6.32;;;;;;;19.99;63.76;99070.84;5033182;28;20026;-49
2021/08/17 03:39:10;;;;;;;23.45;21.38;;;;;;;19.98;63.93;99067.38;5033103;28;20030;-50
2021/08/17 03:41:35;;;;;;;9.38;3.80;;;;;;;20.11;63.53;99068.81;5048379;28;20217;-50
2021/08/17 03:44:01;;;;;;;61.65;55.88;;;;;;;20.08;63.42;99058.66;5033018;28;20483;-50
2021/08/17 03:46:28;;;;;;;21.58;18.55;;;;;;;19.92;63.69;99066.53;5031598;28;20040;-50
2021/08/17 03:48:56;;;;;;;22.65;16.60;;;;;;;19.77;64.18;99062.91;5032978;28;20028;-50
2021/08/17 03:51:22;;;;;;;7.07;3.97;;;;;;;19.70;64.13;99071.06;5032813;28;20056;-50
2021/08/17 03:53:48;;;;;;;8.85;2.60;;;;;;;19.69;64.35;99077.44;5032832;28;20053;-50
2021/08/17 03:56:14;;;;;;;4.97;2.55;;;;;;;19.73;64.29;99082.03;5032749;28;20029;-50
2021/08/17 03:58:39;;;;;;;11.27;8.45;;;;;;;19.74;64.48;99075.66;5032737;28;20025;-50
2021/08/17 04:01:05;;;;;;;10.48;9.45;;;;;;;19.87;64.13;99071.78;5048000;28;20124;-50
2021/08/17 04:03:31;;;;;;;9.20;3.85;;;;;;;19.98;63.93;99079.88;5032683;28;20022;-50
2021/08/17 04:05:57;;;;;;;12.88;11.52;;;;;;;20.04;63.63;99084.19;5032599;28;20040;-50
2021/08/17 04:08:22;;;;;;;18.65;8.55;;;;;;;20.20;63.40;99085.13;5047853;28;20026;-50
2021/08/17 04:10:48;;;;;;;7.88;3.97;;;;;;;20.26;62.89;99074.28;5032462;28;20550;-49
2021/08/17 04:13:14;;;;;;;54.55;46.38;;;;;;;20.27;63.09;99083.06;5032511;28;20024;-49
2021/08/17 04:15:39;;;;;;;23.55;18.35;;;;;;;20.24;62.88;99087.06;5032421;28;20108;-50
2021/08/17 04:18:05;;;;;;;5.88;3.42;;;;;;;20.21;62.80;99081.44;5032392;28;20049;-50
2021/08/17 04:20:32;;;;;;;41.80;30.33;;;;;;;20.15;63.09;99080.56;5032335;28;20071;-50
2021/08/17 04:22:58;;;;;;;7.95;2.28;;;;;;;20.40;62.69;99089.84;5032299;28;20017;-50
2021/08/17 04:25:24;;;;;;;13.80;6.05;;;;;;;20.40;62.61;99089.84;5047663;28;20394;-49
2021/08/17 04:27:49;;;;;;;16.88;13.13;;;;;;;20.41;62.41;99084.25;5032070;28;20045;-49
2021/08/17 04:30:15;;;;;;;26.88;23.80;;;;;;;20.33;62.43;99082.06;5031751;28;20451;-50
2021/08/17 04:32:41;;;;;;;22.10;18.65;;;;;;;20.17;62.95;99083.00;5032221;28;20017;-50
2021/08/17 04:35:08;;;;;;;8.05;3.92;;;;;;;20.24;62.86;99084.41;5032398;28;20021;-50
2021/08/17 04:37:34;;;;;;;40.47;36.70;;;;;;;20.23;62.64;99093.44;5032103;28;20498;-49
2021/08/17 04:40:01;;;;;;;9.13;4.20;;;;;;;20.25;62.74;99093.19;5047377;28;20558;-50
2021/08/17 04:42:26;;;;;;;37.17;33.63;;;;;;;20.31;62.92;99095.63;5031990;28;20565;-49
2021/08/17 04:44:52;;;;;;;29.15;26.35;;;;;;;20.55;62.77;99095.28;5031991;28;20021;-50
2021/08/17 04:47:18;;;;;;;121.20;111.85;;;;;;;20.88;61.42;99093.41;5031940;28;20026;-50
2021/08/17 04:49:43;;;;;;;37.88;34.25;;;;;;;20.92;61.19;99094.50;5047134;28;20030;-50
2021/08/17 04:52:09;;;;;;;13.63;6.18;;;;;;;21.07;60.83;99091.13;5031874;28;20048;-50
2021/08/17 04:54:37;;;;;;;42.03;37.95;;;;;;;21.08;60.64;99095.38;5047156;28;20507;-50
2021/08/17 04:57:04;;;;;;;10.93;6.25;;;;;;;20.95;60.23;99089.44;5031773;28;20024;-50
2021/08/17 04:59:30;;;;;;;16.95;7.32;;;;;;;20.69;60.85;99098.34;5031815;28;20022;-50
2021/08/17 05:01:56;;;;;;;23.25;16.65;;;;;;;20.66;61.44;99098.84;5047034;28;20407;-50
2021/08/17 05:04:21;;;;;;;24.95;19.25;;;;;;;20.79;61.48;99101.09;5031795;28;20495;-50
2021/08/17 05:06:47;;;;;;;18.30;5.05;;;;;;;21.03;60.38;99114.84;5031707;28;20022;-50
2021/08/17 05:09:13;;;;;;;4.78;3.58;;;;;;;20.92;60.43;99108.63;5047229;28;20022;-49
2021/08/17 05:11:39;;;;;;;7.80;4.25;;;;;;;20.74;60.43;99104.53;5031636;28;20622;-50
2021/08/17 05:14:07;;;;;;;4.85;2.55;;;;;;;20.59;60.73;99116.97;5046974;28;20025;-50
2021/08/17 05:16:33;;;;;;;16.40;6.07;;;;;;;20.39;61.81;99120.22;5031663;28;20034;-50
2021/08/17 05:18:58;;;;;;;9.93;6.03;;;;;;;20.51;61.93;99108.31;5046880;28;20025;-50
2021/08/17 05:21:24;;;;;;;43.17;38.15;;;;;;;20.68;61.43;99110.06;5031628;28;20061;-50
2021/08/17 05:23:50;;;;;;;17.15;8.43;;;;;;;20.76;60.97;99114.94;5046836;28;20243;-50
2021/08/17 05:26:16;;;;;;;12.23;4.95;;;;;;;20.87;60.45;99113.94;5031303;28;20049;-51
2021/08/17 05:28:42;;;;;;;56.45;51.03;;;;;;;21.14;60.28;99115.69;5031553;28;20499;-50
2021/08/17 05:31:08;;;;;;;9.38;6.20;;;;;;;21.50;59.09;99115.88;5046700;28;20036;-50
2021/08/17 05:33:33;;;;;;;7.95;4.63;;;;;;;21.79;57.51;99115.44;5031504;28;20546;-49
2021/08/17 05:35:59;;;;;;;6.43;3.47;;;;;;;21.97;57.14;99116.81;5046745;28;20026;-49
2021/08/17 05:38:25;;;;;;;12.85;3.95;;;;;;;22.10;56.80;99119.00;5030133;28;20025;-50
2021/08/17 05:40:50;;;;;;;12.75;11.65;;;;;;;22.21;55.88;99123.25;5031746;28;20033;-50
2021/08/17 05:43:16;;;;;;;14.50;5.43;;;;;;;22.02;56.18;99125.66;5035291;28;20529;-49
2021/08/17 05:45:42;;;;;;;48.13;43.00;;;;;;;21.75;56.75;99128.50;5050572;28;20040;-50
2021/08/17 05:48:07;;;;;;;28.35;25.45;;;;;;;21.64;57.00;99126.91;5035204;28;20032;-50
2021/08/17 05:50:33;;;;;;;10.75;5.53;;;;;;;21.55;57.62;99131.94;5035081;28;20064;-50
2021/08/17 05:52:59;;;;;;;9.23;5.75;;;;;;;21.48;57.71;99134.03;5035111;28;20502;-50
2021/08/17 05:55:24;;;;;;;9.02;3.70;;;;;;;21.45;57.60;99130.03;5035059;28;20452;-50
2021/08/17 05:57:55;;;;;;;113.70;103.68;;;;;;;21.31;58.23;99135.00;5034990;28;20022;-50
2021/08/17 06:00:21;;;;;;;16.85;7.43;;;;;;;21.22;58.32;99135.75;5034969;28;20030;-50
2021/08/17 06:02:47;;;;;;;32.17;28.90;;;;;;;21.32;58.51;99125.13;5034960;28;20433;-49
2021/08/17 06:05:12;;;;;;;12.02;10.90;;;;;;;22.12;56.57;99127.53;5034917;28;20034;-50
2021/08/17 06:07:44;;;;;;;12.88;5.00;;;;;;;22.44;55.13;99129.22;5050154;28;20014;-50
2021/08/17 06:10:10;;;;;;;14.35;13.00;;;;;;;22.19;55.25;99135.28;5034806;28;20490;-50
2021/08/17 06:12:36;;;;;;;39.67;35.67;;;;;;;22.88;54.38;99123.28;5034796;28;20051;-50
2021/08/17 06:15:01;;;;;;;385.15;339.48;;;;;;;24.16;51.08;99113.94;5033331;28;20033;-50
2021/08/17 06:17:27;;;;;;;32.65;28.92;;;;;;;24.28;50.15;99119.75;5034724;28;20399;-50
2021/08/17 06:19:53;;;;;;;16.08;9.32;;;;;;;24.70;49.35;99121.03;5049885;28;20114;-50
2021/08/17 06:22:18;;;;;;;295.02;247.68;;;;;;;25.07;48.19;99114.22;5034581;28;20028;-50
2021/08/17 06:24:44;;;;;;;34.95;24.65;;;;;;;25.07;47.90;99122.25;5034572;28;20112;-50
2021/08/17 06:27:10;;;;;;;11.57;5.55;;;;;;;25.11;47.41;99113.38;5034163;28;20061;-50
2021/08/17 06:29:36;;;;;;;6.90;4.75;;;;;;;24.95;47.39;99113.81;5034530;28;20503;-50
2021/08/17 06:32:01;;;;;;;14.65;5.75;;;;;;;25.38;47.05;99113.91;5034313;28;20057;-50
2021/08/17 06:34:27;;;;;;;11.60;9.13;;;;;;;25.90;45.55;99118.34;5049643;28;20022;-50
2021/08/17 06:36:53;;;;;;;9.40;5.95;;;;;;;25.98;45.10;99114.19;5032985;28;20043;-50
2021/08/17 06:39:20;;;;;;;7.13;4.60;;;;;;;25.96;44.65;99111.00;5034285;28;20443;-50
2021/08/17 06:41:48;;;;;;;9.40;4.20;;;;;;;25.95;44.78;99111.28;5034123;28;20037;-50
2021/08/17 06:44:14;;;;;;;10.60;5.60;;;;;;;26.64;43.51;99112.38;5034196;28;20024;-50
2021/08/17 06:46:40;;;;;;;9.55;5.85;;;;;;;27.70;41.71;99113.25;5049454;28;20479;-50
2021/08/17 06:49:06;;;;;;;7.32;5.30;;;;;;;28.33;39.94;99108.06;5034097;28;20049;-50
2021/08/17 06:51:31;;;;;;;12.25;8.13;;;;;;;29.44;37.88;99102.72;5033988;28;20029;-50
2021/08/17 06:53:57;;;;;;;8.18;6.05;;;;;;;30.32;35.53;99108.19;5033867;28;20109;-50
2021/08/17 06:56:23;;;;;;;11.45;6.65;;;;;;;30.98;34.57;99105.16;5033941;28;20040;-51
2021/08/17 06:58:48;;;;;;;8.90;4.70;;;;;;;31.28;33.69;99110.59;5033901;28;20025;-50
2021/08/17 07:01:14;;;;;;;7.75;4.80;;;;;;;31.19;33.61;99105.19;5049204;28;20072;-50
2021/08/17 07:03:40;;;;;;;6.65;5.07;;;;;;;31.72;33.04;99108.44;5034056;28;20034;-50
2021/08/17 07:06:05;;;;;;;11.52;4.97;;;;;;;32.20;32.35;99118.75;5033749;28;20052;-50
2021/08/17 07:08:31;;;;;;;12.63;5.07;;;;;;;32.48;32.02;99111.91;5033755;28;20105;-50
2021/08/17 07:10:57;;;;;;;8.80;4.72;;;;;;;32.41;31.69;99110.53;5033540;28;20029;-50
2021/08/17 07:13:24;;;;;;;10.50;5.78;;;;;;;32.21;31.80;99114.09;5033673;28;20104;-50
2021/08/17 07:15:50;;;;;;;10.40;5.03;;;;;;;31.68;32.83;99115.63;5033584;28;20427;-51
2021/08/17 07:18:16;;;;;;;8.98;4.93;;;;;;;31.31;33.26;99115.34;5033542;28;20060;-50
2021/08/17 07:20:41;;;;;;;10.60;6.60;;;;;;;31.82;32.16;99114.25;5033499;28;20065;-50
2021/08/17 07:23:07;;;;;;;10.85;5.55;;;;;;;32.24;31.12;99113.44;5032152;28;20075;-50
2021/08/17 07:25:35;;;;;;;11.50;7.30;;;;;;;32.34;30.86;99114.94;5033396;28;20026;-50
2021/08/17 07:28:01;;;;;;;28.20;25.38;;;;;;;32.84;29.99;99120.16;5033277;28;20111;-50
2021/08/17 07:30:27;;;;;;;10.70;6.72;;;;;;;33.72;28.74;99121.72;5048533;28;20032;-50
2021/08/17 07:32:53;;;;;;;8.52;5.78;;;;;;;34.56;27.33;99118.22;5048524;28;20025;-51
2021/08/17 07:35:20;;;;;;;93.78;66.82;;;;;;;35.08;26.58;99116.41;5033160;28;20032;-50
2021/08/17 07:37:48;;;;;;;29.02;24.70;;;;;;;35.23;25.88;99117.53;5033164;28;20049;-51
2021/08/17 07:40:17;;;;;;;113.22;102.57;;;;;;;35.22;25.74;99126.91;5033138;28;20079;-50
2021/08/17 07:42:45;;;;;;;19.90;15.68;;;;;;;35.50;25.67;99119.34;5033076;28;20026;-48
2021/08/17 07:45:11;;;;;;;9.63;7.03;;;;;;;35.76;25.59;99121.47;5033027;28;20025;-48
2021/08/17 07:47:39;;;;;;;10.75;6.47;;;;;;;36.11;24.91;99122.53;5032989;28;20052;-50
2021/08/17 07:50:07;;;;;;;9.48;6.65;;;;;;;36.65;24.19;99124.38;5031503;28;20037;-50
2021/08/17 07:52:35;;;;;;;9.38;6.15;;;;;;;37.22;23.27;99123.72;5032802;28;20385;-50
2021/08/17 07:55:05;;;;;;;9.38;6.03;;;;;;;37.34;22.72;99128.97;5032790;28;20092;-50
2021/08/17 07:57:31;;;;;;;11.75;5.88;;;;;;;37.09;23.22;99128.59;5032894;28;20025;-50
2021/08/17 07:59:57;;;;;;;13.30;7.00;;;;;;;36.74;23.39;99135.84;5032783;28;20134;-51
2021/08/17 08:02:23;;;;;;;12.88;6.50;;;;;;;35.94;23.92;99135.50;5032735;28;20106;-50
2021/08/17 08:04:49;;;;;;;16.80;7.07;;;;;;;34.95;25.46;99140.25;5032177;28;20063;-50
2021/08/17 08:07:15;;;;;;;26.40;8.30;;;;;;;34.13;27.02;99131.47;5032727;28;20053;-48
2021/08/17 08:09:41;;;;;;;16.60;7.55;;;;;;;34.48;26.54;99143.72;5032636;28;20084;-48
2021/08/17 08:12:09;;;;;;;23.77;6.97;;;;;;;35.24;25.13;99140.97;5047747;28;20028;-50
2021/08/17 08:14:34;;;;;;;26.35;8.73;;;;;;;35.11;24.58;99140.22;5032688;28;20026;-50
2021/08/17 08:17:00;;;;;;;23.05;7.97;;;;;;;34.77;25.26;99132.44;5032418;28;20060;-50
2021/08/17 08:19:26;;;;;;;16.08;7.20;;;;;;;34.82;25.06;99131.38;5032422;28;20109;-50
2021/08/17 08:21:51;;;;;;;15.63;8.38;;;;;;;35.01;25.18;99136.09;5032314;28;20135;-50
2021/08/17 08:24:18;;;;;;;17.58;7.50;;;;;;;34.96;24.72;99133.66;5032344;28;20104;-50
2021/08/17 08:26:44;;;;;;;12.40;7.60;;;;;;;35.04;24.73;99132.69;5032059;28;20128;-50
2021/08/17 08:29:09;;;;;;;9.77;7.90;;;;;;;34.69;24.48;99141.56;5032246;28;20530;-48
2021/08/17 08:31:35;;;;;;;11.93;6.63;;;;;;;34.50;24.13;99142.22;5032191;28;20434;-48
2021/08/17 08:34:01;;;;;;;13.13;7.38;;;;;;;34.45;24.60;99133.50;5032141;28;20399;-48
2021/08/17 08:36:27;;;;;;;9.85;6.95;;;;;;;34.24;24.86;99139.19;5047388;28;20030;-48
2021/08/17 08:38:52;;;;;;;13.77;8.50;;;;;;;34.30;25.05;99138.56;5032124;28;20017;-48
2021/08/17 08:41:19;;;;;;;13.40;7.85;;;;;;;34.36;25.13;99136.38;5032025;28;20032;-50
2021/08/17 08:43:46;;;;;;;10.82;7.78;;;;;;;34.39;24.46;99141.13;5047279;28;20025;-50
2021/08/17 08:46:17;;;;;;;11.40;8.27;;;;;;;34.45;23.80;99134.31;5030723;28;20040;-50
2021/08/17 08:48:48;;;;;;;17.90;8.20;;;;;;;34.32;24.32;99136.28;5031869;28;20018;-48
2021/08/17 08:51:16;;;;;;;9.13;7.07;;;;;;;33.73;24.53;99139.66;5031871;28;20072;-50
2021/08/17 08:53:42;;;;;;;26.58;24.08;;;;;;;33.99;23.83;99145.47;5031855;28;20060;-50
2021/08/17 08:56:09;;;;;;;19.27;12.48;;;;;;;34.28;23.76;99140.84;5031886;28;20103;-50
2021/08/17 08:58:34;;;;;;;12.18;9.05;;;;;;;34.42;24.65;99135.00;5031821;28;20021;-50
2021/08/17 09:01:00;;;;;;;13.80;8.85;;;;;;;35.08;23.93;99133.56;5031753;28;20030;-50
2021/08/17 09:03:43;;;;;;;13.45;8.82;;;;;;;35.70;23.15;99133.84;5031828;28;20049;-50
2021/08/17 09:06:19;;;;;;;11.93;9.50;;;;;;;36.29;20.80;99140.09;5031759;28;20033;-50
2021/08/17 09:08:45;;;;;;;16.92;9.93;;;;;;;36.55;20.23;99144.88;5046982;28;20084;-48
2021/08/17 09:11:22;;;;;;;21.63;10.45;;;;;;;36.62;20.71;99143.41;5031609;28;20025;-50
2021/08/17 09:13:48;;;;;;;15.98;10.68;;;;;;;36.88;20.63;99137.22;5031668;28;20037;-50
2021/08/17 09:16:30;;;;;;;26.60;10.70;;;;;;;37.05;20.97;99141.44;5032627;28;20406;-51
2021/08/17 09:18:56;;;;;;;28.63;9.55;;;;;;;37.03;20.50;99139.06;5035844;28;20025;-50
2021/08/17 09:21:35;;;;;;;25.02;10.07;;;;;;;36.88;20.45;99148.19;5035730;28;20096;-50
2021/08/17 09:24:34;;;;;;;26.80;9.40;;;;;;;36.66;20.69;99136.09;5051057;28;20522;-50
2021/08/17 09:27:12;;;;;;;21.05;9.45;;;;;;;36.64;19.51;99146.59;5035192;28;20046;-50
2021/08/17 09:29:44;;;;;;;18.23;9.13;;;;;;;36.66;19.89;99144.28;5035657;28;20104;-50
2021/08/17 09:32:19;;;;;;;17.00;9.00;;;;;;;36.18;20.02;99141.81;5035462;28;20021;-50
2021/08/17 09:34:48;;;;;;;15.20;8.23;;;;;;;35.76;19.18;99129.66;5035824;28;20491;-50
2021/08/17 09:37:15;;;;;;;15.75;9.82;;;;;;;35.51;20.27;99134.56;5035437;28;20490;-50
2021/08/17 09:39:49;;;;;;;12.95;8.23;;;;;;;35.58;20.69;99137.44;5035372;28;20514;-50
2021/08/17 09:42:17;;;;;;;11.75;8.15;;;;;;;35.76;20.46;99146.06;5035367;28;20029;-50
2021/08/17 09:44:45;;;;;;;21.65;9.25;;;;;;;36.12;20.22;99144.06;5035277;28;20100;-51
2021/08/17 09:47:11;;;;;;;12.82;8.82;;;;;;;36.31;20.28;99139.75;5035286;28;20025;-51
2021/08/17 09:49:37;;;;;;;10.77;8.02;;;;;;;36.25;19.41;99135.72;5035236;28;20017;-50
2021/08/17 09:52:15;;;;;;;10.73;8.27;;;;;;;36.17;19.99;99148.47;5035058;28;20049;-50
2021/08/17 09:54:48;;;;;;;14.15;9.07;;;;;;;36.30;20.65;99135.41;5035132;28;20032;-50
2021/08/17 09:57:15;;;;;;;12.63;7.43;;;;;;;36.78;19.48;99133.97;5035107;28;20521;-50
2021/08/17 09:59:46;;;;;;;9.18;8.10;;;;;;;36.84;19.25;99139.91;5050313;28;20040;-51
2021/08/17 10:02:13;;;;;;;13.10;8.80;;;;;;;36.72;18.73;99127.22;5034950;28;20072;-50
2021/08/17 10:04:41;;;;;;;10.20;7.47;;;;;;;36.49;18.83;99131.88;5050271;28;20041;-50
2021/08/17 10:07:10;;;;;;;15.25;8.90;;;;;;;36.14;19.64;99122.63;5034963;28;20080;-50
2021/08/17 10:09:37;;;;;;;15.20;9.00;;;;;;;35.90;20.07;99131.91;5034917;28;20025;-50
2021/08/17 10:12:06;;;;;;;12.07;7.95;;;;;;;36.06;19.58;99128.28;5034734;28;20064;-51
2021/08/17 10:14:33;;;;;;;10.38;8.20;;;;;;;36.21;19.34;99121.19;5033434;28;20025;-50
2021/08/17 10:16:59;;;;;;;20.85;8.35;;;;;;;36.21;18.67;99116.53;5033316;28;20036;-50
2021/08/17 10:19:30;;;;;;;15.95;7.88;;;;;;;35.49;19.08;99115.00;5034603;28;20014;-50
2021/08/17 10:21:59;;;;;;;20.25;9.00;;;;;;;35.77;19.27;99111.34;5034645;28;20238;-50
2021/08/17 10:24:35;;;;;;;12.32;7.82;;;;;;;36.06;19.47;99111.91;5034580;28;20060;-50
2021/08/17 10:27:21;;;;;;;9.15;7.88;;;;;;;35.98;19.02;99103.56;5033716;28;20049;-50
2021/08/17 10:29:54;;;;;;;14.95;9.02;;;;;;;34.88;20.95;99107.34;5034495;28;20509;-50
2021/08/17 10:32:35;;;;;;;12.00;8.85;;;;;;;33.84;22.38;99113.53;5034386;28;20053;-50
2021/08/17 10:35:00;;;;;;;14.77;9.55;;;;;;;32.67;23.50;99112.19;5034422;28;20037;-50
2021/08/17 10:37:26;;;;;;;14.45;9.50;;;;;;;31.78;24.90;99112.53;5034363;28;20032;-50
2021/08/17 10:39:52;;;;;;;9.93;8.65;;;;;;;31.86;24.72;99125.22;5034234;28;20021;-50
2021/08/17 10:42:27;;;;;;;17.65;9.25;;;;;;;32.43;22.83;99108.28;5049502;28;20041;-50
2021/08/17 10:45:13;;;;;;;13.60;8.52;;;;;;;33.25;21.78;99105.91;5049546;28;20033;-50
2021/08/17 10:47:39;;;;;;;11.48;8.00;;;;;;;33.43;21.13;99102.59;5033971;28;20136;-50
2021/08/17 10:50:05;;;;;;;13.77;7.78;;;;;;;32.65;21.53;99106.31;5034030;28;20112;-49
2021/08/17 10:52:35;;;;;;;10.35;8.05;;;;;;;32.65;21.84;99114.47;5034070;28;20049;-50
2021/08/17 10:55:29;;;;;;;10.43;8.70;;;;;;;33.44;21.26;99103.38;5033865;28;20055;-51
2021/08/17 10:58:01;;;;;;;14.40;8.88;;;;;;;33.60;21.15;99101.53;5033918;28;20017;-50
2021/08/17 11:00:47;;;;;;;15.65;10.32;;;;;;;32.70;22.35;99106.09;5049194;28;20040;-50
2021/08/17 11:03:15;;;;;;;11.05;8.75;;;;;;;32.97;22.36;99096.47;5033815;28;20022;-50
2021/08/17 11:05:52;;;;;;;10.35;8.95;;;;;;;33.51;21.02;99090.00;5049078;28;20025;-51
2021/08/17 11:08:32;;;;;;;12.48;10.65;;;;;;;33.27;21.58;99092.78;5033806;28;20051;-47
2021/08/17 11:11:04;;;;;;;12.18;10.25;;;;;;;33.17;21.57;99089.38;5033664;28;20033;-48
2021/08/17 11:13:29;;;;;;;10.32;8.15;;;;;;;33.28;21.05;99095.13;5033692;28;20022;-47
2021/08/17 11:16:09;;;;;;;11.85;7.95;;;;;;;33.33;21.01;99075.88;5033558;28;20450;-47
2021/08/17 11:18:54;;;;;;;12.27;8.00;;;;;;;33.37;19.68;99086.88;5033494;28;20029;-49
2021/08/17 11:21:42;;;;;;;10.10;8.02;;;;;;;33.32;20.99;99079.72;5033550;28;20408;-47
2021/08/17 11:24:10;;;;;;;10.88;8.98;;;;;;;33.15;21.37;99079.97;5033511;28;20026;-47
2021/08/17 11:26:37;;;;;;;16.88;8.48;;;;;;;33.16;21.72;99076.09;5031829;28;20049;-47
2021/08/17 11:29:04;;;;;;;15.18;8.38;;;;;;;33.59;21.62;99078.19;5033389;28;20120;-48